Weather at Phonngbyin Airport

Public forecast

Using degrees Celsius for public forecast. Weather courtesy of forecast.io.

Closest aviation weather report (METAR) to Phonngbyin Airport

Closest report is Imphal Airport, 57.3 nm (106.1 km) WNW. Retrieved 2020/10/20 10:00 UTC (53 minutes ago):

VEIM 201000Z 05003KT 5000 VCRA FEW010 SCT018 BKN100 22/18 Q1011 NOSIG

Closest aviation forecast (TAF) to Phonngbyin Airport

Forecast is more than 12 hours old.

Closest forecast is Imphal Airport, 57.3 nm (106.1 km) WNW. Retrieved 2017/12/28 12:00 UTC (3 years ago):

TAF VEIM 281100Z 2812/2821 06006KT 4000 BR FEW020 BECMG 2815/2817 00000KT 2000 BR